Modesto, California
Current Conditions -  °F | °C
As of 7:53 AM on Saturday 25 Oct 2014 (Local Time) from KMOD Reporting Station
Clear Clear  
Wind Chill: 13°   Ceiling: Unl
Heat Index: 13°   Visibility: 10mi
Dew Point: 11°   Wind: 7mph
Humidity: 84%   Direction: 110°ESE
Pressure: 29.98"   Gusts: NA
Location:  37.64°N, 120.99°W
Report Text: KMOD 251453Z 11006KT 10SM CLR 13/11 A2998 RMK AO2 SLP151 T01330106 53013
Loading
Personal Weather Stations






























Interactive Weather Map
Tropical Storm Tracking
New forecast layout! Learn more

10-Day Weather Forecast

Advertisements
Track Severe Weather on mobile